Time;durP1;ratioP1;P1;durP2;ratioP2;P2;SDS_P1;SDS_P2;PMS_P1;PMS_P2;Temp;Humidity;BMP_temperature;BMP_pressure;BME280_temperature;BME280_humidity;BME280_pressure;Samples;Min_cycle;Max_cycle;Signal;HPM_P1;HPM_P2
2022/04/02 00:01:22;;;;;;;;;10.00;6.75;;;;;2.40;65.35;100580.00;5055434;28;45501;-75
2022/04/02 00:03:47;;;;;;;;;7.00;6.00;;;;;2.38;64.66;100587.81;5037077;28;45477;-75
2022/04/02 00:06:12;;;;;;;;;10.00;9.00;;;;;2.34;65.32;100586.03;5053699;28;45490;-75
2022/04/02 00:08:38;;;;;;;;;11.50;7.50;;;;;2.31;65.06;100589.47;5054876;28;45497;-75
2022/04/02 00:11:04;;;;;;;;;9.50;9.00;;;;;2.36;64.11;100593.88;5036867;28;45521;-73
2022/04/02 00:13:31;;;;;;;;;12.25;9.00;;;;;2.28;64.52;100581.59;5036934;28;45594;-74
2022/04/02 00:15:59;;;;;;;;;6.00;6.00;;;;;2.28;64.19;100592.03;5053983;28;45367;-75
2022/04/02 00:18:25;;;;;;;;;7.00;6.25;;;;;2.26;64.08;100590.25;5054134;28;46469;-75
2022/04/02 00:20:50;;;;;;;;;7.00;6.25;;;;;2.22;64.40;100591.09;5037311;28;45504;-75
2022/04/02 00:26:01;;;;;;;;;11.25;9.25;;;;;2.20;63.51;100601.50;5054541;28;45351;-75
2022/04/02 00:28:27;;;;;;;;;4.00;3.00;;;;;2.16;62.89;100597.09;5034882;28;47595;-74
2022/04/02 00:30:52;;;;;;;;;9.00;4.00;;;;;2.10;63.40;100592.66;5054172;28;45456;-73
2022/04/02 00:33:17;;;;;;;;;9.75;6.00;;;;;2.13;62.75;100587.47;5054154;28;45475;-75
2022/04/02 00:35:44;;;;;;;;;3.25;3.25;;;;;2.08;62.78;100589.16;5054133;28;45493;-74
2022/04/02 00:38:09;;;;;;;;;4.00;4.00;;;;;2.06;62.73;100577.81;5053551;28;46534;-75
2022/04/02 00:40:37;;;;;;;;;4.00;3.00;;;;;2.02;61.73;100589.06;5054874;28;45446;-74
2022/04/02 00:43:03;;;;;;;;;4.50;4.50;;;;;2.00;61.65;100589.88;5055968;28;45434;-74
2022/04/02 00:45:29;;;;;;;;;3.75;1.50;;;;;1.95;61.51;100582.00;5053915;28;45492;-74
2022/04/02 00:47:54;;;;;;;;;2.75;2.75;;;;;2.03;61.74;100595.16;5053560;28;45761;-77
2022/04/02 00:50:20;;;;;;;;;6.00;6.00;;;;;2.02;60.93;100585.56;5057914;28;45521;-78
2022/04/02 00:52:45;;;;;;;;;1.00;1.00;;;;;1.99;61.05;100582.91;5057907;28;45370;-78
2022/04/02 00:55:12;;;;;;;;;3.00;3.00;;;;;1.96;60.80;100570.72;5057502;28;45430;-78
2022/04/02 00:57:38;;;;;;;;;1.00;1.00;;;;;1.89;60.73;100569.72;5057196;28;46025;-78
2022/04/02 01:00:05;;;;;;;;;1.50;1.50;;;;;1.99;60.63;100590.72;5038082;28;45522;-78
2022/04/02 01:02:30;;;;;;;;;3.00;3.00;;;;;1.97;59.73;100585.50;5055366;28;45736;-78
2022/04/02 01:04:56;;;;;;;;;3.00;3.00;;;;;1.91;60.15;100573.25;5057106;28;45524;-78
2022/04/02 01:07:23;;;;;;;;;1.00;1.00;;;;;1.93;60.44;100584.56;5056359;28;45473;-77
2022/04/02 01:09:48;;;;;;;;;1.00;1.00;;;;;1.92;60.00;100576.72;5056570;28;45474;-78
2022/04/02 01:12:14;;;;;;;;;2.00;1.00;;;;;1.89;59.01;100572.34;5059353;28;45404;-78
2022/04/02 01:14:39;;;;;;;;;3.25;0.75;;;;;1.88;59.26;100574.91;5056192;28;45541;-78
2022/04/02 01:17:05;;;;;;;;;1.00;1.00;;;;;1.88;59.06;100575.81;5055361;28;46263;-79
2022/04/02 01:19:32;;;;;;;;;3.25;3.25;;;;;1.87;59.21;100574.06;5055183;28;45352;-78
2022/04/02 01:21:57;;;;;;;;;3.00;3.00;;;;;1.88;58.62;100575.81;5054965;28;45542;-78
2022/04/02 01:24:24;;;;;;;;;1.00;1.00;;;;;1.80;58.92;100573.94;5055109;28;45553;-78
2022/04/02 01:26:49;;;;;;;;;0.75;0.75;;;;;1.74;59.26;100567.75;5054965;28;45550;-78
2022/04/02 01:29:15;;;;;;;;;3.00;3.00;;;;;1.73;58.99;100558.22;5054436;28;45343;-78
2022/04/02 01:31:44;;;;;;;;;1.50;1.50;;;;;1.75;58.85;100584.28;5055528;28;45455;-79
2022/04/02 01:34:10;;;;;;;;;3.25;3.00;;;;;1.71;58.85;100572.91;5056346;28;45594;-79
2022/04/02 01:36:35;;;;;;;;;3.00;1.00;;;;;1.68;58.67;100572.00;5062161;28;45457;-78
2022/04/02 01:39:01;;;;;;;;;1.00;1.00;;;;;1.64;58.62;100572.81;5057309;28;45393;-78
2022/04/02 01:41:27;;;;;;;;;1.00;1.00;;;;;1.67;59.50;100570.25;5059013;28;45497;-77
2022/04/02 01:43:52;;;;;;;;;1.00;1.00;;;;;1.65;59.20;100574.56;5023146;28;45720;-77
2022/04/02 01:46:18;;;;;;;;;3.00;1.00;;;;;1.62;58.55;100579.72;5056764;28;45534;-79
2022/04/02 01:48:45;;;;;;;;;0.50;0.50;;;;;1.57;58.51;100577.03;5055228;28;45648;-79
2022/04/02 01:51:11;;;;;;;;;1.00;1.00;;;;;1.45;58.91;100567.28;5054343;28;45423;-78
2022/04/02 01:53:37;;;;;;;;;3.75;3.75;;;;;1.58;59.08;100592.69;5054945;28;45442;-78
2022/04/02 01:56:02;;;;;;;;;2.50;2.50;;;;;1.58;58.77;100603.13;5054777;28;46152;-78
2022/04/02 01:58:28;;;;;;;;;3.25;1.00;;;;;1.57;59.32;100590.06;5053533;28;45322;-79
2022/04/02 02:00:53;;;;;;;;;1.00;1.00;;;;;1.52;60.08;100597.81;5055307;28;45375;-79
2022/04/02 02:03:20;;;;;;;;;5.50;4.00;;;;;1.53;59.13;100604.75;5057247;28;45562;-78
2022/04/02 02:05:46;;;;;;;;;3.00;3.00;;;;;1.50;59.43;100596.88;5060073;28;46230;-79
2022/04/02 02:08:11;;;;;;;;;3.75;2.00;;;;;1.46;59.72;100608.13;5054709;28;45509;-78
2022/04/02 02:10:37;;;;;;;;;0.75;0.75;;;;;1.47;59.98;100615.06;5054542;28;45609;-78
2022/04/02 02:13:02;;;;;;;;;2.50;2.00;;;;;1.47;59.60;100612.47;5039923;28;45326;-77
2022/04/02 02:15:28;;;;;;;;;0.75;0.75;;;;;1.37;59.41;100601.03;5053255;28;46052;-75
2022/04/02 02:17:54;;;;;;;;;3.25;3.00;;;;;1.40;59.03;100600.22;5057141;28;45573;-75
2022/04/02 02:20:21;;;;;;;;;1.00;1.00;;;;;1.46;59.58;100618.56;5056935;28;45560;-75
2022/04/02 02:22:50;;;;;;;;;2.50;2.50;;;;;1.42;59.96;100612.38;5043908;28;45575;-76
2022/04/02 02:25:17;;;;;;;;;2.00;2.00;;;;;1.41;59.79;100614.97;5058020;28;46270;-74
2022/04/02 02:27:47;;;;;;;;;3.25;1.50;;;;;1.40;59.56;100597.59;5057600;28;45560;-72
2022/04/02 02:30:14;;;;;;;;;1.00;1.00;;;;;1.40;59.43;100602.81;5061039;28;45339;-74
2022/04/02 02:32:39;;;;;;;;;4.50;1.00;;;;;1.42;59.70;100609.78;5056961;28;45358;-75
2022/04/02 02:38:11;;;;;;;;;0.75;0.75;;;;;1.40;59.52;100613.22;5056175;28;45497;-76
2022/04/02 02:40:38;;;;;;;;;3.00;0.75;;;;;1.39;59.99;100619.28;5056387;28;45580;-75
2022/04/02 02:43:05;;;;;;;;;4.00;4.00;;;;;1.36;59.68;100621.84;5056119;28;45347;-75
2022/04/02 02:45:31;;;;;;;;;2.50;2.50;;;;;1.34;60.37;100618.34;5038393;28;45475;-74
2022/04/02 02:47:58;;;;;;;;;4.00;4.00;;;;;1.35;59.93;100614.84;5056415;28;45596;-75
2022/04/02 02:50:25;;;;;;;;;3.25;2.00;;;;;1.35;59.75;100630.47;5055530;28;45473;-75
2022/04/02 02:52:50;;;;;;;;;0.50;0.25;;;;;1.32;59.74;100622.63;5037090;28;45536;-75
2022/04/02 02:55:16;;;;;;;;;1.00;1.00;;;;;1.34;59.70;100628.75;5055133;28;46710;-75
2022/04/02 02:57:43;;;;;;;;;4.25;3.75;;;;;1.31;60.14;100628.69;5057285;28;45466;-75
2022/04/02 03:00:10;;;;;;;;;3.75;1.00;;;;;1.27;60.02;100635.56;5040779;28;45525;-74
2022/04/02 03:02:39;;;;;;;;;3.50;1.50;;;;;1.22;59.92;100630.25;5064178;28;45462;-75
2022/04/02 03:05:12;;;;;;;;;0.75;0.00;;;;;1.16;60.45;100624.94;5057507;28;45457;-75
2022/04/02 03:07:41;;;;;;;;;2.00;2.00;;;;;1.19;60.79;100634.53;5022862;28;45380;-74
2022/04/02 03:10:07;;;;;;;;;2.00;2.00;;;;;1.17;60.33;100641.44;5056768;28;45485;-74
2022/04/02 03:12:33;;;;;;;;;5.50;3.75;;;;;1.12;60.15;100635.25;5049929;28;45382;-73
2022/04/02 03:15:01;;;;;;;;;1.00;1.00;;;;;1.13;60.11;100645.72;5037693;28;46410;-73
2022/04/02 03:17:29;;;;;;;;;3.00;3.00;;;;;1.13;60.91;100645.72;5051838;28;45423;-75
2022/04/02 03:19:54;;;;;;;;;4.00;4.00;;;;;1.09;60.75;100643.88;5057684;28;45331;-74
2022/04/02 03:22:21;;;;;;;;;2.00;2.00;;;;;1.10;60.87;100650.84;5055858;28;45650;-75
2022/04/02 03:24:46;;;;;;;;;1.00;1.00;;;;;1.09;60.78;100645.63;5040595;28;46126;-75
2022/04/02 03:27:12;;;;;;;;;3.25;1.00;;;;;1.07;60.90;100648.19;5054943;28;45506;-75
2022/04/02 03:29:37;;;;;;;;;2.00;2.00;;;;;1.05;60.91;100647.28;5056462;28;45437;-74
2022/04/02 03:32:04;;;;;;;;;3.25;3.00;;;;;1.04;61.03;100650.75;5055698;28;45505;-75
2022/04/02 03:34:29;;;;;;;;;2.00;1.00;;;;;1.00;61.32;100648.91;5054947;28;45444;-74
2022/04/02 03:36:57;;;;;;;;;2.75;2.00;;;;;0.94;61.29;100640.97;5054922;28;45370;-73
2022/04/02 03:39:23;;;;;;;;;4.00;3.00;;;;;1.00;61.32;100656.72;5056313;28;45351;-75
2022/04/02 03:41:49;;;;;;;;;4.00;3.00;;;;;0.87;60.98;100637.38;5055118;28;45357;-74
2022/04/02 03:44:15;;;;;;;;;2.50;2.50;;;;;0.92;61.35;100650.50;5035659;28;46308;-73
2022/04/02 03:49:25;;;;;;;;;2.50;2.50;;;;;0.93;61.81;100657.44;5057385;28;45510;-74
2022/04/02 03:51:51;;;;;;;;;4.50;3.50;;;;;0.95;62.20;100660.97;5058220;28;45556;-74
2022/04/02 03:54:17;;;;;;;;;3.00;1.00;;;;;0.91;61.89;100656.53;5054817;28;46550;-73
2022/04/02 03:56:44;;;;;;;;;3.75;3.75;;;;;0.91;62.21;100653.94;5054250;28;45441;-75
2022/04/02 03:59:11;;;;;;;;;4.00;3.00;;;;;0.86;62.35;100657.31;5055565;28;45414;-75
2022/04/02 04:01:37;;;;;;;;;3.75;3.00;;;;;0.84;62.16;100656.41;5055586;28;45410;-75
2022/04/02 04:04:03;;;;;;;;;2.50;2.50;;;;;0.85;62.14;100665.97;5054140;28;45415;-75
2022/04/02 04:06:28;;;;;;;;;7.00;3.25;;;;;0.83;62.08;100661.59;5052803;28;45449;-75
2022/04/02 04:08:56;;;;;;;;;4.50;3.25;;;;;0.84;62.41;100663.34;5054356;28;45369;-74
2022/04/02 04:11:23;;;;;;;;;3.00;3.00;;;;;0.86;62.19;100672.06;5055507;28;45580;-75
2022/04/02 04:13:48;;;;;;;;;8.00;6.00;;;;;0.78;62.40;100656.28;5052720;28;45604;-73
2022/04/02 04:16:15;;;;;;;;;3.00;3.00;;;;;0.80;62.28;100665.00;5054902;28;45380;-74
2022/04/02 04:18:40;;;;;;;;;3.50;3.25;;;;;0.78;62.62;100665.81;5055262;28;45772;-74
2022/04/02 04:21:06;;;;;;;;;5.00;3.00;;;;;0.78;63.06;100682.31;5055378;28;45475;-73
2022/04/02 04:23:34;;;;;;;;;2.00;0.50;;;;;0.78;62.63;100677.09;5036744;28;45442;-73
2022/04/02 04:26:00;;;;;;;;;6.75;4.00;;;;;0.76;62.89;100676.19;5053953;28;45421;-73
2022/04/02 04:28:25;;;;;;;;;1.00;1.00;;;;;0.76;62.87;100683.09;5054892;28;45426;-74
2022/04/02 04:30:51;;;;;;;;;6.75;4.00;;;;;0.77;62.57;100685.75;5055244;28;45419;-75
2022/04/02 04:33:16;;;;;;;;;5.25;2.50;;;;;0.77;62.58;100690.06;5034703;28;45584;-74
2022/04/02 04:35:41;;;;;;;;;3.00;3.00;;;;;0.61;62.86;100660.22;5054570;28;45415;-75
2022/04/02 04:38:07;;;;;;;;;6.50;3.25;;;;;0.74;62.52;100688.28;5054230;28;45455;-72
2022/04/02 04:40:32;;;;;;;;;4.00;3.25;;;;;0.76;63.06;100697.03;5053014;28;45410;-75
2022/04/02 04:42:58;;;;;;;;;6.25;3.00;;;;;0.75;63.01;100705.66;5054170;28;45501;-74
2022/04/02 04:45:24;;;;;;;;;3.00;3.00;;;;;0.75;63.17;100690.03;5036848;28;45440;-75
2022/04/02 04:47:50;;;;;;;;;3.00;3.00;;;;;0.63;62.44;100685.44;5055019;28;45403;-74
2022/04/02 04:50:16;;;;;;;;;2.50;1.50;;;;;0.74;62.92;100708.22;5054756;28;45629;-75
2022/04/02 04:52:41;;;;;;;;;2.00;2.00;;;;;0.75;62.58;100704.78;5052422;28;46128;-75
2022/04/02 04:55:07;;;;;;;;;3.75;3.75;;;;;0.74;62.85;100710.84;5054784;28;45340;-74
2022/04/02 04:57:34;;;;;;;;;3.00;2.00;;;;;0.68;62.99;100703.75;5054216;28;45499;-73
2022/04/02 04:59:59;;;;;;;;;8.00;2.00;;;;;0.70;62.95;100712.50;5054496;28;45366;-75
2022/04/02 05:02:25;;;;;;;;;3.75;3.75;;;;;0.70;62.74;100712.50;5051960;28;46278;-75
2022/04/02 05:04:50;;;;;;;;;3.25;3.25;;;;;0.68;62.76;100708.97;5054250;28;45494;-75
2022/04/02 05:07:18;;;;;;;;;3.50;3.50;;;;;0.68;62.96;100714.16;5053772;28;45432;-74
2022/04/02 05:09:45;;;;;;;;;3.50;2.00;;;;;0.65;62.82;100715.00;5036914;28;45649;-75
2022/04/02 05:12:11;;;;;;;;;2.50;2.50;;;;;0.63;62.63;100727.06;5049048;28;46285;-74
2022/04/02 05:14:37;;;;;;;;;3.00;3.00;;;;;0.60;62.68;100716.59;5054972;28;45553;-74
2022/04/02 05:17:03;;;;;;;;;1.50;1.50;;;;;0.66;62.95;100726.28;5054704;28;45479;-74
2022/04/02 05:19:28;;;;;;;;;1.50;1.50;;;;;0.61;63.16;100733.06;5019922;28;45741;-74
2022/04/02 05:21:54;;;;;;;;;3.00;1.00;;;;;0.65;63.27;100740.13;5060969;28;45504;-74
2022/04/02 05:24:19;;;;;;;;;1.00;1.00;;;;;0.63;62.78;100736.63;5075064;27;45383;-74
2022/04/02 05:26:47;;;;;;;;;6.75;3.00;;;;;0.66;63.24;100731.47;5074310;28;45346;-74
2022/04/02 05:29:13;;;;;;;;;3.00;1.00;;;;;0.65;62.87;100734.91;5074399;28;45323;-74
2022/04/02 05:31:41;;;;;;;;;3.00;3.00;;;;;0.57;62.83;100723.47;5043502;28;46391;-78
2022/04/02 05:34:07;;;;;;;;;3.25;3.25;;;;;0.70;62.55;100748.94;5053644;28;45293;-79
2022/04/02 05:36:33;;;;;;;;;3.75;3.00;;;;;0.69;62.74;100741.97;5054874;28;45410;-78
2022/04/02 05:38:58;;;;;;;;;3.75;3.75;;;;;0.70;62.46;100747.19;5057401;28;45354;-78
2022/04/02 05:41:24;;;;;;;;;3.75;3.75;;;;;0.76;62.52;100736.06;5053421;28;45315;-78
2022/04/02 05:43:49;;;;;;;;;3.00;3.00;;;;;0.83;62.34;100745.72;5054843;28;45357;-79
2022/04/02 05:46:16;;;;;;;;;1.00;1.00;;;;;0.89;62.12;100755.41;5058209;28;45421;-78
2022/04/02 05:48:42;;;;;;;;;3.25;3.25;;;;;0.92;61.67;100745.06;5058575;28;45446;-78
2022/04/02 05:51:07;;;;;;;;;3.00;3.00;;;;;1.01;61.81;100754.81;5054629;28;46200;-78
2022/04/02 05:53:32;;;;;;;;;3.50;2.50;;;;;1.12;61.85;100755.91;5068616;28;45445;-77
2022/04/02 05:55:58;;;;;;;;;3.25;3.00;;;;;1.37;61.26;100753.84;5079329;27;45468;-76
2022/04/02 05:58:24;;;;;;;;;3.00;3.00;;;;;1.72;60.04;100769.28;5078196;27;45455;-78
2022/04/02 06:00:49;;;;;;;;;6.00;3.00;;;;;2.12;58.15;100764.78;5045401;28;46330;-76
2022/04/02 06:03:15;;;;;;;;;1.00;1.00;;;;;2.72;57.49;100772.72;5071031;28;45472;-77
2022/04/02 06:05:41;;;;;;;;;3.00;3.00;;;;;3.29;56.17;100769.16;5080128;27;45458;-75
2022/04/02 06:08:07;;;;;;;;;3.00;3.00;;;;;3.98;54.84;100770.81;5076503;28;45501;-78
2022/04/02 06:10:33;;;;;;;;;3.50;3.00;;;;;4.59;53.11;100765.28;5057343;28;46198;-78
2022/04/02 06:12:58;;;;;;;;;4.00;4.00;;;;;5.06;51.30;100777.81;5053941;28;45459;-78
2022/04/02 06:15:24;;;;;;;;;3.75;3.00;;;;;5.62;49.88;100749.22;5058406;28;45521;-77
2022/04/02 06:17:51;;;;;;;;;3.50;2.75;;;;;6.04;48.51;100781.69;5042876;28;45371;-77
2022/04/02 06:20:17;;;;;;;;;3.50;3.50;;;;;6.54;47.93;100777.38;5062006;28;45417;-78
2022/04/02 06:22:42;;;;;;;;;6.75;6.00;;;;;7.14;46.37;100782.56;5077096;28;45469;-78
2022/04/02 06:25:09;;;;;;;;;6.00;4.00;;;;;7.45;45.20;100777.19;5057259;27;45473;-77
2022/04/02 06:27:42;;;;;;;;;3.25;3.25;;;;;7.98;44.95;100777.81;5056033;28;45564;-75
2022/04/02 06:30:10;;;;;;;;;6.50;3.00;;;;;8.36;43.50;100777.53;5055554;28;45484;-75
2022/04/02 06:32:36;;;;;;;;;1.00;1.00;;;;;8.71;42.72;100784.34;5060815;28;45406;-74
2022/04/02 06:35:01;;;;;;;;;4.00;4.00;;;;;9.07;41.91;100782.22;5057039;28;45611;-75
2022/04/02 06:37:33;;;;;;;;;3.00;2.00;;;;;9.51;40.43;100782.59;5038006;28;45588;-76
2022/04/02 06:39:58;;;;;;;;;2.50;2.50;;;;;9.93;39.88;100790.00;5054668;28;46081;-75
2022/04/02 06:42:23;;;;;;;;;7.00;4.00;;;;;10.33;39.42;100792.06;5055652;28;45453;-75
2022/04/02 06:44:50;;;;;;;;;1.00;1.00;;;;;10.73;38.58;100788.75;5056471;28;45525;-75
2022/04/02 06:47:15;;;;;;;;;5.00;5.00;;;;;10.92;37.73;100780.53;5057317;28;45426;-75
2022/04/02 06:49:41;;;;;;;;;3.50;2.00;;;;;11.17;37.01;100776.53;5059533;28;45585;-79
2022/04/02 06:52:06;;;;;;;;;2.00;1.75;;;;;11.53;36.48;100796.97;5056302;28;45531;-80
2022/04/02 06:54:33;;;;;;;;;4.00;2.00;;;;;11.91;35.49;100798.81;5056815;28;45391;-78
2022/04/02 06:56:59;;;;;;;;;4.00;3.00;;;;;11.95;35.73;100797.00;5057204;28;45533;-79
2022/04/02 06:59:24;;;;;;;;;1.25;1.25;;;;;12.22;34.63;100798.16;5057289;28;45404;-80
2022/04/02 07:01:50;;;;;;;;;1.00;1.00;;;;;12.46;33.92;100798.47;5039332;28;45412;-78
2022/04/02 07:04:16;;;;;;;;;5.00;4.00;;;;;12.61;33.98;100800.75;5074701;28;45437;-77
2022/04/02 07:06:44;;;;;;;;;2.00;2.00;;;;;12.74;33.30;100800.47;5060948;28;45411;-79
2022/04/02 07:09:11;;;;;;;;;5.00;2.00;;;;;12.59;33.85;100817.63;5055839;28;45637;-79
2022/04/02 07:11:36;;;;;;;;;4.25;2.00;;;;;12.77;33.48;100784.47;5057229;28;45390;-79
2022/04/02 07:14:02;;;;;;;;;2.50;2.00;;;;;13.26;32.79;100809.69;5057083;28;45425;-85
2022/04/02 07:16:28;;;;;;;;;3.00;2.50;;;;;13.32;32.64;100804.19;5033485;28;45360;-77
2022/04/02 07:18:55;;;;;;;;;4.50;4.50;;;;;13.48;32.36;100803.78;5068700;28;46377;-82
2022/04/02 07:21:26;;;;;;;;;3.50;3.50;;;;;13.77;31.60;100815.38;5060845;28;45394;-74
2022/04/02 07:23:52;;;;;;;;;4.00;4.00;;;;;13.67;30.95;100799.69;5054607;28;45323;-75
2022/04/02 07:26:18;;;;;;;;;6.50;3.50;;;;;13.60;31.50;100814.06;5056387;28;45299;-76
2022/04/02 07:28:44;;;;;;;;;2.50;2.50;;;;;13.62;31.07;100817.56;5037030;28;45434;-75
2022/04/02 07:31:10;;;;;;;;;1.00;1.00;;;;;13.68;31.60;100822.69;5021735;28;45384;-80
2022/04/02 07:33:35;;;;;;;;;1.00;0.75;;;;;14.27;30.69;100818.28;5056903;28;45306;-80
2022/04/02 07:36:09;;;;;;;;;3.75;3.00;;;;;14.28;30.46;100820.00;5049267;28;45614;-78
2022/04/02 07:38:46;;;;;;;;;3.50;3.50;;;;;14.55;30.32;100825.38;5034057;28;46168;-76
2022/04/02 07:41:26;;;;;;;;;2.50;2.50;;;;;14.89;29.45;100830.50;5064149;28;45519;-75
2022/04/02 07:43:55;;;;;;;;;1.50;1.00;;;;;14.88;29.12;100825.22;5058418;28;45510;-77
2022/04/02 07:46:32;;;;;;;;;2.50;2.00;;;;;14.96;29.12;100817.81;5072143;28;45411;-78
2022/04/02 07:48:58;;;;;;;;;1.75;1.75;;;;;15.30;29.16;100829.94;5030979;28;47555;-80
2022/04/02 07:51:28;;;;;;;;;2.00;1.00;;;;;15.72;28.50;100829.31;5063809;28;45533;-80
2022/04/02 07:53:56;;;;;;;;;1.00;1.00;;;;;15.79;28.12;100832.63;5058818;28;45396;-80
2022/04/02 07:56:28;;;;;;;;;1.00;1.00;;;;;15.71;27.87;100832.88;5055460;28;45434;-78
2022/04/02 07:59:00;;;;;;;;;3.50;1.00;;;;;15.39;27.88;100837.59;5061427;27;46232;-81
2022/04/02 08:01:26;;;;;;;;;1.25;1.25;;;;;14.78;28.95;100842.41;5054790;28;45409;-82
2022/04/02 08:03:53;;;;;;;;;2.00;2.00;;;;;14.74;28.82;100834.53;5055710;28;45384;-80
2022/04/02 08:06:21;;;;;;;;;1.00;1.00;;;;;14.75;28.99;100846.88;5056119;28;45407;-80
2022/04/02 08:08:47;;;;;;;;;4.00;2.00;;;;;14.25;29.31;100836.06;5057445;28;45463;-79
2022/04/02 08:11:16;;;;;;;;;0.25;0.25;;;;;14.02;29.98;100840.28;5055966;28;45461;-80
2022/04/02 08:13:43;;;;;;;;;2.00;2.00;;;;;13.64;30.54;100839.63;5055956;28;45529;-79
2022/04/02 08:16:09;;;;;;;;;4.00;2.00;;;;;14.04;30.26;100849.09;5054781;28;45364;-77
2022/04/02 08:18:39;;;;;;;;;0.25;0.25;;;;;14.25;30.08;100846.69;5058071;28;46219;-79
2022/04/02 08:21:04;;;;;;;;;4.00;2.00;;;;;13.71;30.67;100848.31;5057656;28;45413;-76
2022/04/02 08:23:30;;;;;;;;;1.50;1.50;;;;;13.62;30.11;100846.78;5067938;28;45380;-74
2022/04/02 08:26:27;;;;;;;;;4.00;1.75;;;;;13.76;30.45;100849.03;5054159;28;45534;-75
2022/04/02 08:29:09;;;;;;;;;1.75;1.75;;;;;14.21;29.78;100847.69;5054320;28;46380;-75
2022/04/02 08:31:59;;;;;;;;;1.50;1.50;;;;;14.38;28.91;100848.06;5049804;28;45505;-85
2022/04/02 08:34:33;;;;;;;;;1.00;1.00;;;;;14.50;28.70;100851.22;5058310;28;45417;-85
2022/04/02 08:37:13;;;;;;;;;1.50;1.50;;;;;14.01;28.29;100865.16;5035226;28;45644;-75
2022/04/02 08:39:47;;;;;;;;;1.00;1.00;;;;;14.45;27.55;100866.47;5054627;28;46059;-78
2022/04/02 08:42:46;;;;;;;;;1.00;1.00;;;;;14.21;28.07;100868.97;5051558;28;45466;-78
2022/04/02 08:45:13;;;;;;;;;0.00;0.00;;;;;14.52;27.53;100858.25;5054887;28;45366;-78
2022/04/02 08:48:33;;;;;;;;;1.00;1.00;;;;;14.64;27.50;100853.50;5038576;28;45590;-78
2022/04/02 08:51:21;;;;;;;;;4.50;2.00;;;;;14.87;27.10;100866.03;5041608;28;46437;-74
2022/04/02 08:54:04;;;;;;;;;1.75;1.00;;;;;14.80;26.90;100854.72;5056514;28;45385;-74
2022/04/02 08:56:34;;;;;;;;;2.00;2.00;;;;;14.89;26.75;100866.84;5045554;28;45454;-73
2022/04/02 08:59:04;;;;;;;;;1.00;1.00;;;;;14.14;27.02;100860.31;5052669;28;45415;-75
2022/04/02 09:01:53;;;;;;;;;2.00;0.00;;;;;14.57;28.41;100871.41;5053047;28;46085;-76
2022/04/02 09:04:43;;;;;;;;;3.25;1.00;;;;;14.69;27.27;100867.50;5053482;28;45522;-78
2022/04/02 09:07:47;;;;;;;;;1.25;1.25;;;;;14.79;28.04;100876.06;5053364;28;45456;-78
2022/04/02 09:10:19;;;;;;;;;2.00;1.25;;;;;15.25;26.91;100858.53;5041625;27;45634;-78
2022/04/02 09:13:12;;;;;;;;;0.25;0.25;;;;;14.39;26.81;100873.75;5053941;28;46091;-78
2022/04/02 09:16:00;;;;;;;;;1.00;1.00;;;;;13.93;27.72;100864.47;5049760;28;45294;-76
2022/04/02 09:19:04;;;;;;;;;0.50;0.50;;;;;13.54;27.71;100840.78;5052320;28;45613;-75
2022/04/02 09:21:53;;;;;;;;;2.75;1.00;;;;;13.54;28.51;100877.97;5049507;28;45601;-74
2022/04/02 09:24:38;;;;;;;;;0.75;0.75;;;;;13.91;28.56;100860.13;5048254;28;46346;-73
2022/04/02 09:27:39;;;;;;;;;1.00;1.00;;;;;14.14;27.46;100868.28;5053289;28;45559;-74
2022/04/02 09:30:17;;;;;;;;;2.00;1.00;;;;;14.26;27.05;100882.16;5051679;28;45618;-75
2022/04/02 09:33:12;;;;;;;;;1.00;1.00;;;;;14.35;26.57;100882.72;5050819;28;45558;-75
2022/04/02 09:35:59;;;;;;;;;4.00;1.25;;;;;13.59;27.14;100876.09;5052400;28;45489;-75
2022/04/02 09:38:31;;;;;;;;;2.00;1.00;;;;;13.16;28.46;100874.53;5034882;28;45495;-80
2022/04/02 09:41:23;;;;;;;;;1.25;1.25;;;;;13.35;28.05;100866.13;5035506;28;45602;-79
2022/04/02 09:43:59;;;;;;;;;1.00;1.00;;;;;13.75;27.48;100880.97;5033087;28;45514;-80
2022/04/02 09:46:59;;;;;;;;;1.50;1.50;;;;;14.12;26.73;100885.19;5056371;28;45368;-79
2022/04/02 09:49:54;;;;;;;;;2.00;0.00;;;;;14.28;26.16;100891.78;4981045;28;45415;-79
2022/04/02 09:52:25;;;;;;;;;1.00;1.00;;;;;14.08;24.73;100878.25;4960868;28;45440;-79
2022/04/02 09:55:13;;;;;;;;;0.00;0.00;;;;;14.03;25.58;100891.66;4969453;28;45690;-74
2022/04/02 09:57:45;;;;;;;;;0.50;0.50;;;;;14.21;26.05;100892.88;4971080;28;46315;-74
2022/04/02 10:00:13;;;;;;;;;3.50;3.50;;;;;14.62;25.52;100880.16;4969880;28;45414;-76
2022/04/02 10:03:06;;;;;;;;;1.50;0.00;;;;;14.71;25.31;100886.94;4970926;28;45558;-76
2022/04/02 10:05:44;;;;;;;;;3.00;1.25;;;;;14.81;25.83;100874.22;4973565;28;45459;-78
2022/04/02 10:08:34;;;;;;;;;2.50;0.25;;;;;15.03;25.67;100891.22;4967650;28;45581;-79
2022/04/02 10:11:02;;;;;;;;;2.00;2.00;;;;;14.50;26.14;100877.81;4971227;28;45507;-80
2022/04/02 10:13:31;;;;;;;;;2.00;1.00;;;;;14.51;26.44;100888.41;4968281;28;45423;-81
2022/04/02 10:15:59;;;;;;;;;4.50;1.00;;;;;14.32;27.14;100892.59;4975093;28;45504;-79
2022/04/02 10:18:25;;;;;;;;;4.00;1.00;;;;;13.48;26.94;100894.97;4972479;28;45421;-80
2022/04/02 10:20:52;;;;;;;;;1.75;0.50;;;;;12.41;27.66;100901.09;4970352;28;45700;-74
2022/04/02 10:23:22;;;;;;;;;2.00;2.00;;;;;12.49;27.73;100900.94;4968338;28;45731;-75
2022/04/02 10:26:09;;;;;;;;;2.00;0.75;;;;;12.43;27.68;100897.53;5001693;28;45388;-74
2022/04/02 10:28:46;;;;;;;;;1.75;1.75;;;;;12.90;28.04;100886.66;5053617;28;45631;-75
2022/04/02 10:31:27;;;;;;;;;5.00;2.00;;;;;13.24;27.24;100901.75;5056245;28;45585;-74
2022/04/02 10:34:20;;;;;;;;;1.50;1.50;;;;;13.32;26.53;100894.44;5050646;28;45466;-75
2022/04/02 10:36:57;;;;;;;;;1.75;1.00;;;;;13.46;26.81;100886.16;4986163;28;45625;-79
2022/04/02 10:39:24;;;;;;;;;0.00;0.00;;;;;13.99;26.60;100879.38;4993329;28;46130;-79
2022/04/02 10:42:04;;;;;;;;;2.00;2.00;;;;;13.97;25.60;100876.78;4983714;28;45410;-79
2022/04/02 10:44:45;;;;;;;;;2.00;1.75;;;;;13.99;25.60;100888.22;4982249;28;45605;-80
2022/04/02 10:47:12;;;;;;;;;1.00;1.00;;;;;14.00;25.37;100874.03;4991107;28;45600;-78
2022/04/02 10:49:40;;;;;;;;;0.50;0.50;;;;;13.39;25.04;100889.00;4992336;28;45397;-76
2022/04/02 10:52:11;;;;;;;;;1.00;1.00;;;;;13.31;25.68;100867.94;4991183;28;45475;-79
2022/04/02 10:54:40;;;;;;;;;0.50;0.50;;;;;13.09;26.17;100891.53;4987869;28;45622;-75
2022/04/02 10:57:05;;;;;;;;;2.00;0.25;;;;;13.00;25.63;100876.72;4987403;28;45704;-74
2022/04/02 10:59:37;;;;;;;;;3.00;1.00;;;;;13.00;25.95;100887.34;4991594;28;45878;-73
2022/04/02 11:02:15;;;;;;;;;2.00;1.00;;;;;13.39;25.83;100876.63;4984974;28;45457;-74
2022/04/02 11:04:57;;;;;;;;;2.00;2.00;;;;;13.50;25.80;100884.31;4988741;28;45580;-75
2022/04/02 11:07:28;;;;;;;;;2.00;2.00;;;;;13.11;25.60;100865.81;4989171;28;45743;-75
2022/04/02 11:10:01;;;;;;;;;1.75;1.75;;;;;12.60;26.57;100882.97;5010191;28;45518;-74
2022/04/02 11:12:39;;;;;;;;;2.00;2.00;;;;;12.10;26.68;100899.13;4978284;28;45492;-74
2022/04/02 11:15:11;;;;;;;;;0.50;0.50;;;;;11.81;27.15;100892.63;5046026;28;45494;-75
2022/04/02 11:17:41;;;;;;;;;1.00;1.00;;;;;11.94;27.34;100892.41;5056242;28;45274;-76
2022/04/02 11:20:17;;;;;;;;;2.00;0.75;;;;;12.25;26.73;100890.84;5058165;28;45431;-75
2022/04/02 11:22:51;;;;;;;;;1.00;0.25;;;;;12.45;27.12;100878.94;5056434;28;45497;-76
2022/04/02 11:25:31;;;;;;;;;0.75;0.75;;;;;12.61;26.51;100874.13;5055372;28;45455;-76
2022/04/02 11:28:14;;;;;;;;;4.75;2.00;;;;;12.07;26.61;100888.56;5055898;28;45536;-75
2022/04/02 11:30:45;;;;;;;;;0.00;0.00;;;;;11.34;27.58;100875.84;5055356;28;46520;-75
2022/04/02 11:33:22;;;;;;;;;1.75;1.75;;;;;11.25;28.35;100905.13;5054850;28;45512;-75
2022/04/02 11:35:47;;;;;;;;;1.00;1.00;;;;;11.77;27.73;100897.97;5055205;28;45421;-74
2022/04/02 11:38:17;;;;;;;;;1.00;1.00;;;;;12.11;27.38;100900.00;5055335;28;45533;-75
2022/04/02 11:40:49;;;;;;;;;3.50;3.50;;;;;11.70;27.76;100876.06;5055328;28;46180;-75
2022/04/02 11:43:17;;;;;;;;;1.00;1.00;;;;;11.38;28.13;100882.84;5058492;27;45459;-75
2022/04/02 11:45:46;;;;;;;;;1.00;1.00;;;;;11.22;27.46;100891.94;5055614;28;45649;-76
2022/04/02 11:48:14;;;;;;;;;3.25;0.00;;;;;11.58;26.69;100879.81;5051627;28;45463;-74
2022/04/02 11:50:44;;;;;;;;;1.00;1.00;;;;;11.85;26.37;100893.41;5068777;28;46211;-75